EW6246 Jayuya PR US current weather conditions

sailwx.info

Wind from 156 at 0 knots gusting 1

Air temperature 21.1° C
Dewpoint 19.9° C

Last reported at 2020-Aug-13 06:59 UTC.
Time now 2020-Aug-13 08:09 UTC

Location: N 18°11' W 066°37'.
View on Google Maps.

See reports from other nearby stations

  
Tides and Currents Weather Stations Pressure Air Temp Water Temp Dewpoint Dewpoint Depression Visibility Wind Speed Wind Dir Waves Ship Positions
date/time (UTC)wind fromknots sea level pressurealtimeterstation pressurevisibilityair tempwater tempwave heightnotes
2020-Aug-13 06:59 156 0 gusting 1 21.1
2020-Aug-13 06:44 151 1 gusting 1 21.1
2020-Aug-13 06:29 105 21.1
2020-Aug-13 06:14 115 0 gusting 0 21.1
2020-Aug-13 05:59 140 1 gusting 1 21.7
2020-Aug-13 05:44 100 0 gusting 1 21.7
2020-Aug-13 05:29 069 0 gusting 0 21.7
2020-Aug-13 05:14 165 1 gusting 1 21.7
2020-Aug-13 04:59 165 1 gusting 1 21.7
2020-Aug-13 04:44 170 1 gusting 1 21.7
2020-Aug-13 04:29 163 1 gusting 1 21.7
2020-Aug-13 04:14 233 0 gusting 0 21.7
2020-Aug-13 04:04 017 21.7
2020-Aug-13 03:49 192 0 gusting 0 21.7
2020-Aug-13 03:34 190 0 gusting 0 21.7
2020-Aug-13 03:19 208 0 gusting 0 21.7
2020-Aug-13 03:04 090 1 gusting 2 22.2
2020-Aug-13 02:49 224 0 gusting 0 22.2
2020-Aug-13 02:34 123 1 gusting 1 22.2
2020-Aug-13 02:19 120 0 gusting 1 22.2
2020-Aug-13 02:04 212 1 gusting 1 22.2
2020-Aug-13 01:49 123 0 gusting 0 22.2
2020-Aug-13 01:34 118 22.2
2020-Aug-13 01:19 148 0 gusting 0 22.2
2020-Aug-13 01:04 155 1 gusting 1 22.8
2020-Aug-13 00:44 120 1 gusting 1 22.8
2020-Aug-13 00:29 063 22.8
2020-Aug-13 00:14 122 1 gusting 1 22.8
2020-Aug-13 00:04 125 0 gusting 0 22.8
2020-Aug-12 23:49 108 0 gusting 0 23.3
2020-Aug-12 23:39 091 23.3
2020-Aug-12 23:24 067 23.9
2020-Aug-12 22:54 061 24.4
2020-Aug-12 22:39 126 0 gusting 0 24.4
2020-Aug-12 22:24 049 24.4
2020-Aug-12 22:09 022 0 gusting 1 24.4
2020-Aug-12 21:54 030 1 gusting 1 25.0
2020-Aug-12 21:39 028 25.0
2020-Aug-12 21:24 001 25.6
2020-Aug-12 21:09 350 0 gusting 0 25.0
2020-Aug-12 20:54 091 0 gusting 0 25.6
2020-Aug-12 20:39 042 1 gusting 1 25.6
2020-Aug-12 20:24 218 0 gusting 0 25.6
2020-Aug-12 20:09 021 25.6
2020-Aug-12 19:54 338 25.0
2020-Aug-12 19:39 043 25.0
2020-Aug-12 19:24 059 0 gusting 0 24.4
2020-Aug-12 19:09 240 0 gusting 1 24.4
2020-Aug-12 18:54 162 0 gusting 0 23.9
2020-Aug-12 18:39 319 0 gusting 1 24.4
2020-Aug-12 18:24 042 0 gusting 1 24.4
2020-Aug-12 18:09 079 2 gusting 2 24.4
2020-Aug-12 17:54 068 2 gusting 8 25.0
2020-Aug-12 17:39 054 2 gusting 7 27.2
2020-Aug-12 17:24 071 6 gusting 6 27.2
2020-Aug-12 17:09 068 6 gusting 6 27.8
2020-Aug-12 16:54 021 1 gusting 2 27.8
2020-Aug-12 16:39 350 7 gusting 7 28.3
2020-Aug-12 16:24 049 6 gusting 6 27.2
2020-Aug-12 16:09 27.8
2020-Aug-12 15:54 024 3 gusting 8 27.8
2020-Aug-12 15:39 060 2 gusting 2 27.2
2020-Aug-12 15:24 020 3 gusting 7 27.2
2020-Aug-12 15:09 055 5 gusting 5 27.8
2020-Aug-12 14:54 058 4 gusting 6 27.8
2020-Aug-12 14:39 031 7 gusting 7 27.8
2020-Aug-12 14:24 030 2 gusting 4 27.2
2020-Aug-12 14:13 005 4 gusting 4 26.7
2020-Aug-12 13:04 019 1 gusting 1 26.1
2020-Aug-12 12:49 024 25.6
2020-Aug-12 12:34 335 2 gusting 2 25.0
2020-Aug-12 12:19 323 1 gusting 1 25.0
2020-Aug-12 12:09 003 24.4
2020-Aug-12 11:54 068 24.4
2020-Aug-12 11:39 080 0 gusting 0 24.4
2020-Aug-12 11:24 029 23.3
2020-Aug-12 11:09 048 23.3
2020-Aug-12 10:54 079 22.8
2020-Aug-12 10:39 095 21.1
2020-Aug-12 10:24 179 1 gusting 1 20.6
2020-Aug-12 10:09 233 1 gusting 1 20.6
2020-Aug-12 09:54 20.6
2020-Aug-12 09:44 196 1 gusting 1 20.6
2020-Aug-12 09:29 169 1 gusting 1 21.1
2020-Aug-12 09:14 180 2 gusting 2 21.1
2020-Aug-12 08:59 199 1 gusting 1 21.1
2020-Aug-12 08:44 165 0 gusting 0 21.1
2020-Aug-12 08:29 209 0 gusting 1 21.1
2020-Aug-12 08:14 229 0 gusting 1 21.1
2020-Aug-12 07:59 150 0 gusting 1 21.1
2020-Aug-12 07:44 291 0 gusting 2 20.6
2020-Aug-12 07:29 148 3 gusting 3 21.1
2020-Aug-12 07:14 064 20.6
2020-Aug-12 06:59 143 1 gusting 1 20.6
2020-Aug-12 06:44 181 1 gusting 1 20.6
2020-Aug-12 06:29 255 20.0
2020-Aug-12 06:14 161 0 gusting 0 20.0
2020-Aug-12 05:59 072 2 gusting 2 20.0
2020-Aug-12 05:44 140 1 gusting 1 20.0
2020-Aug-12 05:34 213 1 gusting 1 20.0
2020-Aug-12 05:19 174 1 gusting 1 20.0
2020-Aug-12 05:04 224 0 gusting 1 20.0
2020-Aug-12 04:49 126 1 gusting 2 20.0
2020-Aug-12 04:34 172 1 gusting 1 20.0
2020-Aug-12 04:19 168 0 gusting 1 20.0
2020-Aug-12 04:04 123 0 gusting 0 20.6
2020-Aug-12 03:49 168 1 gusting 1 20.6
2020-Aug-12 03:39 156 1 gusting 1 20.6
2020-Aug-12 03:24 209 0 gusting 0 20.6
2020-Aug-12 03:04 135 1 gusting 1 21.1
2020-Aug-12 02:49 155 1 gusting 1 21.1
2020-Aug-12 02:39 147 1 gusting 1 21.1
2020-Aug-12 02:24 111 0 gusting 1 21.1
2020-Aug-12 02:09 126 1 gusting 1 21.1
2020-Aug-12 01:54 199 0 gusting 0 21.7
2020-Aug-12 01:39 017 21.1
2020-Aug-12 01:24 138 1 gusting 1 21.7
2020-Aug-12 01:09 173 0 gusting 1 21.7
2020-Aug-12 00:59 093 21.7
2020-Aug-12 00:44 159 1 gusting 1 21.7
2020-Aug-12 00:29 112 0 gusting 1 22.2
2020-Aug-12 00:14 147 22.8
2020-Aug-11 23:59 154 0 gusting 1 22.8
2020-Aug-11 23:49 114 0 gusting 0 22.8
2020-Aug-11 23:34 131 0 gusting 0 23.3
2020-Aug-11 23:24 007 23.9
2020-Aug-11 23:09 112 1 gusting 1 23.9
2020-Aug-11 22:54 020 24.4
2020-Aug-11 22:39 085 25.0
2020-Aug-11 22:24 090 25.6
2020-Aug-11 21:54 320 25.6
2020-Aug-11 21:39 065 25.0
2020-Aug-11 21:24 016 25.0
2020-Aug-11 21:14 346 24.4
2020-Aug-11 20:59 054 23.9
2020-Aug-11 20:44 038 23.9
2020-Aug-11 20:29 124 1 gusting 1 23.3
2020-Aug-11 20:14 325 0 gusting 1 23.3
2020-Aug-11 19:59 082 3 gusting 3 22.8
2020-Aug-11 19:49 127 2 gusting 2 23.3
2020-Aug-11 19:34 039 1 gusting 1 23.3
2020-Aug-11 19:19 215 1 gusting 3 23.3
2020-Aug-11 19:04 193 1 gusting 3 23.9
2020-Aug-11 18:49 127 5 gusting 5 26.7
2020-Aug-11 18:39 099 2 gusting 5 27.2
2020-Aug-11 18:24 076 6 gusting 6 27.2
2020-Aug-11 18:09 123 4 gusting 4 27.2
2020-Aug-11 17:54 035 2 gusting 2 28.9
2020-Aug-11 17:39 356 1 gusting 1 28.9
2020-Aug-11 17:24 357 2 gusting 2 29.4
2020-Aug-11 17:09 273 2 gusting 2 28.3
2020-Aug-11 16:54 225 1 gusting 1 28.3
2020-Aug-11 16:39 335 1 gusting 1 27.8
2020-Aug-11 16:24 323 1 gusting 2 27.8
2020-Aug-11 16:09 013 1 gusting 2 28.3
2020-Aug-11 15:54 309 1 gusting 2 27.8
2020-Aug-11 15:39 318 0 gusting 2 28.3
2020-Aug-11 15:29 022 28.9
2020-Aug-11 15:14 332 1 gusting 4 28.9
2020-Aug-11 15:04 283 6 gusting 6 28.3
2020-Aug-11 14:49 209 2 gusting 2 27.8
2020-Aug-11 14:34 286 3 gusting 3 28.3
2020-Aug-11 14:19 035 27.2
2020-Aug-11 14:04 118 1 gusting 1 27.8
2020-Aug-11 13:49 020 2 gusting 2 26.1
2020-Aug-11 13:34 353 0 gusting 1 26.1
2020-Aug-11 13:19 019 1 gusting 1 26.1
2020-Aug-11 13:04 300 1 gusting 1 26.1
2020-Aug-11 12:49 004 0 gusting 0 25.0
2020-Aug-11 12:34 017 0 gusting 0 23.9
2020-Aug-11 12:19 023 23.9
2020-Aug-11 12:09 021 24.4
2020-Aug-11 11:54 067 0 gusting 0 22.8
2020-Aug-11 11:39 046 1 gusting 1 22.8
2020-Aug-11 11:24 083 22.2
2020-Aug-11 11:09 071 21.7
2020-Aug-11 10:54 068 21.1
2020-Aug-11 10:44 077 19.4
2020-Aug-11 10:29 140 1 gusting 1 18.9
2020-Aug-11 10:14 139 2 gusting 2 18.3
2020-Aug-11 09:59 168 1 gusting 1 18.9
2020-Aug-11 09:44 130 1 gusting 1 18.9
2020-Aug-11 09:29 090 0 gusting 0 18.9
2020-Aug-11 09:14 142 1 gusting 1 18.9
2020-Aug-11 09:04 145 1 gusting 1 18.9
2020-Aug-11 08:49 013 19.4
2020-Aug-11 08:34 218 0 gusting 1 19.4
2020-Aug-11 08:19 023 19.4
2020-Aug-11 08:04 073 1 gusting 1 19.4